Time,TemperatureF,DewpointF,PressureIn,WindDirection,WindDirectionDegrees,WindSpeedMPH,WindSpeedGustMPH,Humidity,HourlyPrecipIn,Conditions,Clouds,dailyrainin,SoftwareType,DateUTC
2013-04-19 00:02:00,24.4,16.4,30.03,North,0,0.0,0.0,71,0.00,CLR,,0.00,WeatherDisplay:10.37,2013-04-19 08:02:00,
2013-04-19 00:07:00,24.3,16.2,30.03,North,0,0.0,0.0,71,0.00,CLR,,0.00,WeatherDisplay:10.37,2013-04-19 08:07:00,
2013-04-19 00:12:00,24.1,16.0,30.03,North,0,0.0,0.0,71,0.00,CLR,,0.00,WeatherDisplay:10.37,2013-04-19 08:12:00,
2013-04-19 00:17:00,23.9,15.9,30.03,North,0,0.0,0.0,71,0.00,CLR,,0.00,WeatherDisplay:10.37,2013-04-19 08:17:00,
2013-04-19 00:22:00,24.1,16.4,30.03,North,0,0.0,0.0,72,0.00,CLR,,0.00,WeatherDisplay:10.37,2013-04-19 08:22:00,
2013-04-19 00:27:00,23.9,16.5,30.03,North,0,0.0,0.0,73,0.00,CLR,,0.00,WeatherDisplay:10.37,2013-04-19 08:27:00,
2013-04-19 00:32:00,23.9,16.5,30.06,North,0,0.0,0.0,73,0.00,CLR,,0.00,WeatherDisplay:10.37,2013-04-19 08:32:00,
2013-04-19 00:37:00,23.9,16.5,30.06,North,0,0.0,0.0,73,0.00,CLR,,0.00,WeatherDisplay:10.37,2013-04-19 08:37:00,
2013-04-19 00:42:00,23.9,16.5,30.06,North,0,0.0,0.0,73,0.00,CLR,,0.00,WeatherDisplay:10.37,2013-04-19 08:42:00,
2013-04-19 00:47:00,23.7,16.6,30.06,North,0,0.0,0.0,74,0.00,CLR,,0.00,WeatherDisplay:10.37,2013-04-19 08:47:00,
2013-04-19 00:52:00,23.5,16.5,30.06,North,0,0.0,0.0,74,0.00,CLR,,0.00,WeatherDisplay:10.37,2013-04-19 08:52:00,
2013-04-19 00:57:00,23.5,16.5,30.06,North,0,0.0,0.0,74,0.00,CLR,,0.00,WeatherDisplay:10.37,2013-04-19 08:57:00,
2013-04-19 01:02:00,23.2,16.1,30.06,North,0,0.0,0.0,74,0.00,CLR,,0.00,WeatherDisplay:10.37,2013-04-19 09:02:00,
2013-04-19 01:07:00,23.0,16.3,30.06,North,0,0.0,0.0,75,0.00,CLR,,0.00,WeatherDisplay:10.37,2013-04-19 09:07:00,
2013-04-19 01:12:00,22.8,16.1,30.06,North,0,0.0,0.0,75,0.00,CLR,,0.00,WeatherDisplay:10.37,2013-04-19 09:12:00,
2013-04-19 01:17:00,23.0,16.3,30.06,North,0,0.0,0.0,75,0.00,CLR,,0.00,WeatherDisplay:10.37,2013-04-19 09:17:00,
2013-04-19 01:22:00,23.0,16.6,30.06,North,0,0.0,0.0,76,0.00,CLR,,0.00,WeatherDisplay:10.37,2013-04-19 09:22:00,
2013-04-19 01:27:00,22.8,16.4,30.06,North,0,0.0,0.0,76,0.00,CLR,,0.00,WeatherDisplay:10.37,2013-04-19 09:27:00,
2013-04-19 01:32:00,22.6,16.5,30.06,North,0,0.0,0.0,77,0.00,CLR,,0.00,WeatherDisplay:10.37,2013-04-19 09:32:00,
2013-04-19 01:37:00,22.5,16.3,30.06,North,0,0.0,0.0,77,0.00,CLR,,0.00,WeatherDisplay:10.37,2013-04-19 09:37:00,
2013-04-19 01:42:00,22.3,16.2,30.06,North,0,0.0,0.0,77,0.00,CLR,,0.00,WeatherDisplay:10.37,2013-04-19 09:42:00,
2013-04-19 01:47:00,22.1,16.0,30.06,North,0,0.0,0.0,77,0.00,CLR,,0.00,WeatherDisplay:10.37,2013-04-19 09:47:00,
2013-04-19 01:52:00,21.9,15.8,30.06,North,0,0.0,0.0,77,0.00,CLR,,0.00,WeatherDisplay:10.37,2013-04-19 09:52:00,
2013-04-19 01:57:00,21.9,15.8,30.06,North,0,0.0,0.0,77,0.00,CLR,,0.00,WeatherDisplay:10.37,2013-04-19 09:57:00,
2013-04-19 02:02:00,22.1,16.3,30.06,North,0,0.0,0.0,78,0.00,CLR,,0.00,WeatherDisplay:10.37,2013-04-19 10:02:00,
2013-04-19 02:07:00,22.1,16.3,30.06,North,0,0.0,0.0,78,0.00,CLR,,0.00,WeatherDisplay:10.37,2013-04-19 10:07:00,
2013-04-19 02:12:00,21.9,16.1,30.06,North,0,0.0,0.0,78,0.00,CLR,,0.00,WeatherDisplay:10.37,2013-04-19 10:12:00,
2013-04-19 02:17:00,21.7,15.9,30.06,North,0,0.0,0.0,78,0.00,CLR,,0.00,WeatherDisplay:10.37,2013-04-19 10:17:00,
2013-04-19 02:22:00,21.6,15.8,30.06,North,0,0.0,0.0,78,0.00,CLR,,0.00,WeatherDisplay:10.37,2013-04-19 10:22:00,
2013-04-19 02:27:00,21.6,15.8,30.06,North,0,0.0,0.0,78,0.00,CLR,,0.00,WeatherDisplay:10.37,2013-04-19 10:27:00,
2013-04-19 02:32:00,21.6,16.1,30.06,North,0,0.0,0.0,79,0.00,CLR,,0.00,WeatherDisplay:10.37,2013-04-19 10:32:00,
2013-04-19 02:37:00,21.4,15.9,30.06,North,0,0.0,0.0,79,0.00,CLR,,0.00,WeatherDisplay:10.37,2013-04-19 10:37:00,
2013-04-19 02:42:00,21.4,15.9,30.06,North,0,0.0,0.0,79,0.00,CLR,,0.00,WeatherDisplay:10.37,2013-04-19 10:42:00,
2013-04-19 02:47:00,21.4,15.9,30.06,North,0,0.0,0.0,79,0.00,CLR,,0.00,WeatherDisplay:10.37,2013-04-19 10:47:00,
2013-04-19 02:52:00,21.6,16.3,30.06,North,0,0.0,0.0,80,0.00,CLR,,0.00,WeatherDisplay:10.37,2013-04-19 10:52:00,
2013-04-19 02:57:00,21.4,16.2,30.06,North,0,0.0,0.0,80,0.00,CLR,,0.00,WeatherDisplay:10.37,2013-04-19 10:57:00,
2013-04-19 03:02:00,21.2,16.0,30.09,North,0,0.0,0.0,80,0.00,CLR,,0.00,WeatherDisplay:10.37,2013-04-19 11:02:00,
2013-04-19 03:07:00,22.1,16.9,30.09,North,0,0.0,0.0,80,0.00,CLR,,0.00,WeatherDisplay:10.37,2013-04-19 11:07:00,
2013-04-19 03:12:00,24.4,14.0,30.09,North,0,0.0,0.0,64,0.00,CLR,,0.00,WeatherDisplay:10.37,2013-04-19 11:12:00,
2013-04-19 03:17:00,26.1,11.7,30.09,North,0,0.0,0.0,54,0.00,CLR,,0.00,WeatherDisplay:10.37,2013-04-19 11:17:00,
2013-04-19 03:22:00,25.7,12.9,30.09,North,0,0.0,0.0,58,0.00,CLR,,0.00,WeatherDisplay:10.37,2013-04-19 11:22:00,
2013-04-19 03:27:00,25.5,13.2,30.09,North,0,0.0,0.0,59,0.00,CLR,,0.00,WeatherDisplay:10.37,2013-04-19 11:27:00,
2013-04-19 03:32:00,25.0,12.7,30.09,North,0,0.0,0.0,59,0.00,CLR,,0.00,WeatherDisplay:10.37,2013-04-19 11:32:00,
2013-04-19 03:37:00,24.4,12.5,30.09,North,0,0.0,0.0,60,0.00,CLR,,0.00,WeatherDisplay:10.37,2013-04-19 11:37:00,
2013-04-19 03:42:00,23.9,12.4,30.09,North,0,0.0,0.0,61,0.00,CLR,,0.00,WeatherDisplay:10.37,2013-04-19 11:42:00,
2013-04-19 03:47:00,23.5,12.4,30.09,North,0,0.0,0.0,62,0.00,CLR,,0.00,WeatherDisplay:10.37,2013-04-19 11:47:00,
2013-04-19 03:52:00,23.2,12.1,30.09,North,0,0.0,0.0,62,0.00,CLR,,0.00,WeatherDisplay:10.37,2013-04-19 11:52:00,
2013-04-19 03:57:00,22.8,12.1,30.09,North,0,0.0,0.0,63,0.00,CLR,,0.00,WeatherDisplay:10.37,2013-04-19 11:57:00,
2013-04-19 04:02:00,22.3,12.3,30.09,North,0,0.0,0.0,65,0.00,CLR,,0.00,WeatherDisplay:10.37,2013-04-19 12:02:00,
2013-04-19 04:07:00,22.1,12.1,30.09,North,0,0.0,0.0,65,0.00,CLR,,0.00,WeatherDisplay:10.37,2013-04-19 12:07:00,
2013-04-19 04:12:00,21.9,11.9,30.09,North,0,0.0,0.0,65,0.00,CLR,,0.00,WeatherDisplay:10.37,2013-04-19 12:12:00,
2013-04-19 04:17:00,21.7,12.1,30.09,North,0,0.0,0.0,66,0.00,CLR,,0.00,WeatherDisplay:10.37,2013-04-19 12:17:00,
2013-04-19 04:22:00,21.4,11.8,30.09,North,0,0.0,0.0,66,0.00,CLR,,0.00,WeatherDisplay:10.37,2013-04-19 12:22:00,
2013-04-19 04:27:00,21.2,11.9,30.09,North,0,0.0,0.0,67,0.00,CLR,,0.00,WeatherDisplay:10.37,2013-04-19 12:27:00,
2013-04-19 04:32:00,21.0,11.8,30.09,North,0,0.0,0.0,67,0.00,CLR,,0.00,WeatherDisplay:10.37,2013-04-19 12:32:00,
2013-04-19 04:37:00,21.0,12.1,30.09,North,0,0.0,0.0,68,0.00,CLR,,0.00,WeatherDisplay:10.37,2013-04-19 12:37:00,
2013-04-19 04:42:00,20.8,11.9,30.09,North,0,0.0,0.0,68,0.00,CLR,,0.00,WeatherDisplay:10.37,2013-04-19 12:42:00,
2013-04-19 04:47:00,20.5,11.9,30.09,North,0,0.0,0.0,69,0.00,CLR,,0.00,WeatherDisplay:10.37,2013-04-19 12:47:00,
2013-04-19 04:52:00,20.5,11.9,30.09,North,0,0.0,0.0,69,0.00,CLR,,0.00,WeatherDisplay:10.37,2013-04-19 12:52:00,
2013-04-19 04:57:00,20.3,12.1,30.09,North,0,0.0,0.0,70,0.00,CLR,,0.00,WeatherDisplay:10.37,2013-04-19 12:57:00,
2013-04-19 05:02:00,20.3,12.1,30.09,North,0,0.0,0.0,70,0.00,CLR,,0.00,WeatherDisplay:10.37,2013-04-19 13:02:00,
2013-04-19 05:07:00,20.1,11.9,30.09,North,0,0.0,0.0,70,0.00,CLR,,0.00,WeatherDisplay:10.37,2013-04-19 13:07:00,
2013-04-19 05:12:00,19.9,11.7,30.09,North,0,0.0,0.0,70,0.00,CLR,,0.00,WeatherDisplay:10.37,2013-04-19 13:12:00,
2013-04-19 05:17:00,19.8,11.9,30.09,North,0,0.0,0.0,71,0.00,CLR,,0.00,WeatherDisplay:10.37,2013-04-19 13:17:00,
2013-04-19 05:22:00,19.8,12.2,30.09,North,0,0.0,0.0,72,0.00,CLR,,0.00,WeatherDisplay:10.37,2013-04-19 13:22:00,
2013-04-19 05:27:00,19.8,12.2,30.09,North,0,0.0,0.0,72,0.00,CLR,,0.00,WeatherDisplay:10.37,2013-04-19 13:27:00,
2013-04-19 05:32:00,19.9,12.4,30.09,North,0,0.0,0.0,72,0.00,CLR,,0.00,WeatherDisplay:10.37,2013-04-19 13:32:00,
2013-04-19 05:37:00,19.8,12.2,30.09,North,0,0.0,0.0,72,0.00,CLR,,0.00,WeatherDisplay:10.37,2013-04-19 13:37:00,
2013-04-19 05:42:00,20.1,12.8,30.09,North,0,0.0,0.0,73,0.00,CLR,,0.00,WeatherDisplay:10.37,2013-04-19 13:42:00,
2013-04-19 05:47:00,20.1,12.8,30.12,North,0,0.0,0.0,73,0.00,CLR,,0.00,WeatherDisplay:10.37,2013-04-19 13:47:00,
2013-04-19 05:52:00,20.3,13.0,30.12,North,0,0.0,0.0,73,0.00,CLR,,0.00,WeatherDisplay:10.37,2013-04-19 13:52:00,
2013-04-19 05:57:00,20.3,13.0,30.12,North,0,0.0,0.0,73,0.00,CLR,,0.00,WeatherDisplay:10.37,2013-04-19 13:57:00,
2013-04-19 06:02:00,20.3,13.0,30.12,North,0,0.0,0.0,73,0.00,CLR,,0.00,WeatherDisplay:10.37,2013-04-19 14:02:00,
2013-04-19 06:07:00,20.3,13.0,30.12,North,0,0.0,0.0,73,0.00,CLR,,0.00,WeatherDisplay:10.37,2013-04-19 14:07:00,
2013-04-19 06:12:00,20.7,13.4,30.12,North,0,0.0,0.0,73,0.00,CLR,,0.00,WeatherDisplay:10.37,2013-04-19 14:12:00,
2013-04-19 06:17:00,20.8,13.5,30.12,North,0,0.0,0.0,73,0.00,CLR,,0.00,WeatherDisplay:10.37,2013-04-19 14:17:00,
2013-04-19 06:22:00,21.0,13.7,30.12,North,0,0.0,0.0,73,0.00,CLR,,0.00,WeatherDisplay:10.37,2013-04-19 14:22:00,
2013-04-19 06:27:00,21.4,13.4,30.12,North,0,0.0,0.0,71,0.00,CLR,,0.00,WeatherDisplay:10.37,2013-04-19 14:27:00,
2013-04-19 06:32:00,21.9,13.6,30.12,North,0,0.0,0.0,70,0.00,CLR,,0.00,WeatherDisplay:10.37,2013-04-19 14:32:00,
2013-04-19 06:37:00,22.3,13.3,30.12,North,0,0.0,0.0,68,0.00,CLR,,0.00,WeatherDisplay:10.37,2013-04-19 14:37:00,
2013-04-19 06:42:00,22.6,13.3,30.12,North,0,0.0,0.0,67,0.00,CLR,,0.00,WeatherDisplay:10.37,2013-04-19 14:42:00,
2013-04-19 06:47:00,22.8,13.5,30.12,North,0,0.0,0.0,67,0.00,CLR,,0.00,WeatherDisplay:10.37,2013-04-19 14:47:00,
2013-04-19 06:52:00,22.8,13.2,30.12,North,0,0.0,0.0,66,0.00,CLR,,0.00,WeatherDisplay:10.37,2013-04-19 14:52:00,
2013-04-19 06:57:00,23.0,13.3,30.12,North,0,0.0,0.0,66,0.00,CLR,,0.00,WeatherDisplay:10.37,2013-04-19 14:57:00,
2013-04-19 07:02:00,23.5,13.1,30.12,North,0,0.0,0.0,64,0.00,CLR,,0.00,WeatherDisplay:10.37,2013-04-19 15:02:00,
2013-04-19 07:07:00,23.9,13.5,30.12,North,0,0.0,0.0,64,0.00,CLR,,0.00,WeatherDisplay:10.37,2013-04-19 15:07:00,
2013-04-19 07:12:00,24.3,13.8,30.12,North,0,0.0,0.0,64,0.00,CLR,,0.00,WeatherDisplay:10.37,2013-04-19 15:12:00,
2013-04-19 07:17:00,24.4,14.0,30.12,North,0,0.0,0.0,64,0.00,CLR,,0.00,WeatherDisplay:10.37,2013-04-19 15:17:00,
2013-04-19 07:22:00,24.3,13.8,30.12,North,0,0.0,0.0,64,0.00,CLR,,0.00,WeatherDisplay:10.37,2013-04-19 15:22:00,
2013-04-19 07:27:00,24.4,14.0,30.12,North,0,0.0,0.0,64,0.00,CLR,,0.00,WeatherDisplay:10.37,2013-04-19 15:27:00,
2013-04-19 07:32:00,25.0,14.5,30.12,North,0,0.0,0.0,64,0.00,CLR,,0.00,WeatherDisplay:10.37,2013-04-19 15:32:00,
2013-04-19 07:37:00,25.0,14.5,30.12,North,0,0.0,0.0,64,0.00,CLR,,0.00,WeatherDisplay:10.37,2013-04-19 15:37:00,
2013-04-19 07:42:00,25.3,14.9,30.12,North,0,0.0,0.0,64,0.00,CLR,,0.00,WeatherDisplay:10.37,2013-04-19 15:42:00,
2013-04-19 07:47:00,25.7,15.2,30.12,North,0,0.0,0.0,64,0.00,CLR,,0.00,WeatherDisplay:10.37,2013-04-19 15:47:00,
2013-04-19 07:52:00,26.1,14.8,30.12,North,0,0.0,0.0,62,0.00,CLR,,0.00,WeatherDisplay:10.37,2013-04-19 15:52:00,
2013-04-19 07:57:00,26.6,14.6,30.12,North,0,0.0,0.0,60,0.00,CLR,,0.00,WeatherDisplay:10.37,2013-04-19 15:57:00,
2013-04-19 08:02:00,27.1,13.5,30.15,North,0,0.0,0.0,56,0.00,CLR,,0.00,WeatherDisplay:10.37,2013-04-19 16:02:00,
2013-04-19 08:07:00,27.7,14.0,30.15,North,0,0.0,0.0,56,0.00,CLR,,0.00,WeatherDisplay:10.37,2013-04-19 16:07:00,
2013-04-19 08:12:00,28.2,14.1,30.15,North,0,0.0,0.0,55,0.00,CLR,,0.00,WeatherDisplay:10.37,2013-04-19 16:12:00,
2013-04-19 08:17:00,29.7,15.0,30.15,North,0,0.0,0.0,54,0.00,CLR,,0.00,WeatherDisplay:10.37,2013-04-19 16:17:00,
2013-04-19 08:22:00,30.7,14.7,30.15,North,0,0.0,0.0,51,0.00,CLR,,0.00,WeatherDisplay:10.37,2013-04-19 16:22:00,
2013-04-19 08:27:00,31.3,14.3,30.15,North,0,0.0,0.0,49,0.00,CLR,,0.00,WeatherDisplay:10.37,2013-04-19 16:27:00,
2013-04-19 08:32:00,31.6,14.2,30.15,North,0,0.0,0.0,48,0.00,CLR,,0.00,WeatherDisplay:10.37,2013-04-19 16:32:00,
2013-04-19 08:37:00,32.0,13.5,30.15,North,0,0.0,0.0,46,0.00,CLR,,0.00,WeatherDisplay:10.37,2013-04-19 16:37:00,
2013-04-19 08:42:00,32.4,13.9,30.15,North,0,0.0,0.0,46,0.00,CLR,,0.00,WeatherDisplay:10.37,2013-04-19 16:42:00,
2013-04-19 08:47:00,32.5,13.5,30.15,North,0,0.0,0.0,45,0.00,CLR,,0.00,WeatherDisplay:10.37,2013-04-19 16:47:00,
2013-04-19 08:52:00,32.7,13.2,30.15,North,0,0.0,0.0,44,0.00,CLR,,0.00,WeatherDisplay:10.37,2013-04-19 16:52:00,
2013-04-19 08:57:00,32.7,12.7,30.15,North,0,0.0,0.0,43,0.00,CLR,,0.00,WeatherDisplay:10.37,2013-04-19 16:57:00,
2013-04-19 09:02:00,32.5,12.5,30.15,North,0,0.0,0.0,43,0.00,CLR,,0.00,WeatherDisplay:10.37,2013-04-19 17:02:00,
2013-04-19 09:07:00,32.5,12.5,30.15,North,0,0.0,0.0,43,0.00,CLR,,0.00,WeatherDisplay:10.37,2013-04-19 17:07:00,
2013-04-19 09:12:00,32.5,12.5,30.15,North,0,0.0,0.0,43,0.00,CLR,,0.00,WeatherDisplay:10.37,2013-04-19 17:12:00,
2013-04-19 09:17:00,32.4,12.3,30.15,North,0,0.0,0.0,43,0.00,CLR,,0.00,WeatherDisplay:10.37,2013-04-19 17:17:00,
2013-04-19 09:22:00,32.2,12.2,30.15,North,0,0.0,0.0,43,0.00,CLR,,0.00,WeatherDisplay:10.37,2013-04-19 17:22:00,
2013-04-19 09:27:00,32.2,12.7,30.15,North,0,0.0,0.0,44,0.00,CLR,,0.00,WeatherDisplay:10.37,2013-04-19 17:27:00,
2013-04-19 09:32:00,32.4,12.3,30.15,North,0,0.0,0.0,43,0.00,CLR,,0.00,WeatherDisplay:10.37,2013-04-19 17:32:00,
2013-04-19 09:37:00,32.4,12.3,30.15,North,0,0.0,0.0,43,0.00,CLR,,0.00,WeatherDisplay:10.37,2013-04-19 17:37:00,
2013-04-19 09:42:00,32.2,12.7,30.15,North,0,0.0,0.0,44,0.00,CLR,,0.00,WeatherDisplay:10.37,2013-04-19 17:42:00,
2013-04-19 09:47:00,32.0,12.5,30.18,North,0,0.0,0.0,44,0.00,CLR,,0.00,WeatherDisplay:10.37,2013-04-19 17:47:00,
2013-04-19 09:52:00,32.2,12.7,30.18,North,0,0.0,0.0,44,0.00,CLR,,0.00,WeatherDisplay:10.37,2013-04-19 17:52:00,
2013-04-19 09:57:00,32.5,13.5,30.18,North,0,0.0,0.0,45,0.00,CLR,,0.00,WeatherDisplay:10.37,2013-04-19 17:57:00,
2013-04-19 10:02:00,32.7,13.2,30.15,North,0,0.0,0.0,44,0.00,CLR,,0.00,WeatherDisplay:10.37,2013-04-19 18:02:00,
2013-04-19 10:07:00,32.7,13.2,30.15,North,0,0.0,0.0,44,0.00,CLR,,0.00,WeatherDisplay:10.37,2013-04-19 18:07:00,
2013-04-19 10:12:00,32.7,13.2,30.15,North,0,0.0,0.0,44,0.00,CLR,,0.00,WeatherDisplay:10.37,2013-04-19 18:12:00,
2013-04-19 10:17:00,32.7,12.7,30.18,North,0,0.0,0.0,43,0.00,CLR,,0.00,WeatherDisplay:10.37,2013-04-19 18:17:00,
2013-04-19 10:22:00,32.7,12.1,30.18,North,0,0.0,0.0,42,0.00,CLR,,0.00,WeatherDisplay:10.37,2013-04-19 18:22:00,
2013-04-19 10:27:00,33.1,12.4,30.18,North,0,0.0,0.0,42,0.00,CLR,,0.00,WeatherDisplay:10.37,2013-04-19 18:27:00,
2013-04-19 10:32:00,33.4,12.8,30.18,North,0,0.0,0.0,42,0.00,CLR,,0.00,WeatherDisplay:10.37,2013-04-19 18:32:00,
2013-04-19 10:37:00,33.8,12.6,30.18,North,0,0.0,0.0,41,0.00,CLR,,0.00,WeatherDisplay:10.37,2013-04-19 18:37:00,
2013-04-19 10:42:00,34.3,13.0,30.18,North,0,0.0,0.0,41,0.00,CLR,,0.00,WeatherDisplay:10.37,2013-04-19 18:42:00,
2013-04-19 10:47:00,34.5,13.2,30.18,North,0,0.0,0.0,41,0.00,CLR,,0.00,WeatherDisplay:10.37,2013-04-19 18:47:00,
2013-04-19 10:52:00,34.5,13.2,30.18,North,0,0.0,0.0,41,0.00,CLR,,0.00,WeatherDisplay:10.37,2013-04-19 18:52:00,
2013-04-19 10:57:00,35.6,14.2,30.18,North,0,0.0,0.0,41,0.00,CLR,,0.00,WeatherDisplay:10.37,2013-04-19 18:57:00,
2013-04-19 11:02:00,36.0,14.5,30.18,North,0,0.0,0.0,41,0.00,CLR,,0.00,WeatherDisplay:10.37,2013-04-19 19:02:00,
2013-04-19 11:07:00,36.7,15.2,30.18,North,0,0.0,0.0,41,0.00,CLR,,0.00,WeatherDisplay:10.37,2013-04-19 19:07:00,
2013-04-19 11:12:00,37.6,15.4,30.18,North,0,0.0,0.0,40,0.00,CLR,,0.00,WeatherDisplay:10.37,2013-04-19 19:12:00,
2013-04-19 11:17:00,38.1,15.9,30.18,North,0,0.0,0.0,40,0.00,CLR,,0.00,WeatherDisplay:10.37,2013-04-19 19:17:00,
2013-04-19 11:22:00,38.3,15.5,30.18,North,0,0.0,0.0,39,0.00,CLR,,0.00,WeatherDisplay:10.37,2013-04-19 19:22:00,
2013-04-19 11:27:00,38.5,15.6,30.18,North,0,0.0,0.0,39,0.00,CLR,,0.00,WeatherDisplay:10.37,2013-04-19 19:27:00,
2013-04-19 11:32:00,38.7,15.8,30.18,North,0,0.0,0.0,39,0.00,CLR,,0.00,WeatherDisplay:10.37,2013-04-19 19:32:00,
2013-04-19 11:37:00,38.7,15.8,30.18,North,0,0.0,0.0,39,0.00,CLR,,0.00,WeatherDisplay:10.37,2013-04-19 19:37:00,
2013-04-19 11:42:00,39.0,16.1,30.18,North,0,0.0,0.0,39,0.00,CLR,,0.00,WeatherDisplay:10.37,2013-04-19 19:42:00,
2013-04-19 11:47:00,39.6,16.6,30.18,North,0,0.0,0.0,39,0.00,CLR,,0.00,WeatherDisplay:10.37,2013-04-19 19:47:00,
2013-04-19 11:52:00,39.9,16.3,30.18,North,0,0.0,0.0,38,0.00,CLR,,0.00,WeatherDisplay:10.37,2013-04-19 19:52:00,
2013-04-19 11:57:00,39.9,16.3,30.18,North,0,0.0,0.0,38,0.00,CLR,,0.00,WeatherDisplay:10.37,2013-04-19 19:57:00,
2013-04-19 12:02:00,41.0,17.3,30.18,North,0,0.0,0.0,38,0.00,CLR,,0.00,WeatherDisplay:10.37,2013-04-19 20:02:00,
2013-04-19 12:07:00,41.2,17.5,30.18,North,0,0.0,0.0,38,0.00,CLR,,0.00,WeatherDisplay:10.37,2013-04-19 20:07:00,
2013-04-19 12:12:00,41.4,17.6,30.18,North,0,0.0,0.0,38,0.00,CLR,,0.00,WeatherDisplay:10.37,2013-04-19 20:12:00,
2013-04-19 12:17:00,41.4,17.6,30.18,North,0,0.0,0.0,38,0.00,CLR,,0.00,WeatherDisplay:10.37,2013-04-19 20:17:00,
2013-04-19 12:22:00,42.3,18.4,30.18,North,0,0.0,0.0,38,0.00,CLR,,0.00,WeatherDisplay:10.37,2013-04-19 20:22:00,
2013-04-19 12:27:00,41.9,18.1,30.18,North,0,0.0,0.0,38,0.00,CLR,,0.00,WeatherDisplay:10.37,2013-04-19 20:27:00,
2013-04-19 12:32:00,42.4,18.6,30.18,North,0,0.0,0.0,38,0.00,CLR,,0.00,WeatherDisplay:10.37,2013-04-19 20:32:00,
2013-04-19 12:37:00,43.0,17.8,30.18,North,0,0.0,0.0,36,0.00,CLR,,0.00,WeatherDisplay:10.37,2013-04-19 20:37:00,
2013-04-19 12:42:00,43.2,19.2,30.18,North,0,0.0,0.0,38,0.00,CLR,,0.00,WeatherDisplay:10.37,2013-04-19 20:42:00,
2013-04-19 12:47:00,43.5,19.6,30.18,North,0,0.0,0.0,38,0.00,CLR,,0.00,WeatherDisplay:10.37,2013-04-19 20:47:00,
2013-04-19 12:52:00,43.5,18.9,30.18,North,0,0.0,0.0,37,0.00,CLR,,0.00,WeatherDisplay:10.37,2013-04-19 20:52:00,
2013-04-19 12:57:00,43.2,18.0,30.18,North,0,0.0,0.0,36,0.00,CLR,,0.00,WeatherDisplay:10.37,2013-04-19 20:57:00,
2013-04-19 13:02:00,43.2,17.3,30.18,North,0,0.0,0.0,35,0.00,CLR,,0.00,WeatherDisplay:10.37,2013-04-19 21:02:00,
2013-04-19 13:07:00,43.3,18.8,30.18,North,0,0.0,0.0,37,0.00,CLR,,0.00,WeatherDisplay:10.37,2013-04-19 21:07:00,
2013-04-19 13:12:00,44.6,19.3,30.18,North,0,0.0,0.0,36,0.00,CLR,,0.00,WeatherDisplay:10.37,2013-04-19 21:12:00,
2013-04-19 13:17:00,44.4,19.1,30.18,North,0,0.0,0.0,36,0.00,CLR,,0.00,WeatherDisplay:10.37,2013-04-19 21:17:00,
2013-04-19 13:22:00,43.9,18.0,30.18,North,0,0.0,0.0,35,0.00,CLR,,0.00,WeatherDisplay:10.37,2013-04-19 21:22:00,
2013-04-19 13:27:00,43.5,18.9,30.18,North,0,0.0,0.0,37,0.00,CLR,,0.00,WeatherDisplay:10.37,2013-04-19 21:27:00,
2013-04-19 13:32:00,43.0,17.2,30.18,North,0,0.0,0.0,35,0.00,CLR,,0.00,WeatherDisplay:10.37,2013-04-19 21:32:00,
2013-04-19 13:37:00,43.9,18.6,30.18,North,0,0.0,0.0,36,0.00,CLR,,0.00,WeatherDisplay:10.37,2013-04-19 21:37:00,
2013-04-19 13:42:00,43.2,18.6,30.18,North,0,0.0,0.0,37,0.00,CLR,,0.00,WeatherDisplay:10.37,2013-04-19 21:42:00,
2013-04-19 13:47:00,44.4,19.7,30.18,North,0,0.0,0.0,37,0.00,CLR,,0.00,WeatherDisplay:10.37,2013-04-19 21:47:00,
2013-04-19 13:52:00,45.0,20.2,30.18,North,0,0.0,0.0,37,0.00,CLR,,0.00,WeatherDisplay:10.37,2013-04-19 21:52:00,
2013-04-19 13:57:00,44.4,19.7,30.18,North,0,0.0,0.0,37,0.00,CLR,,0.00,WeatherDisplay:10.37,2013-04-19 21:57:00,
2013-04-19 14:02:00,43.5,17.6,30.21,North,0,0.0,0.0,35,0.00,CLR,,0.00,WeatherDisplay:10.37,2013-04-19 22:02:00,
2013-04-19 14:07:00,41.9,16.9,30.21,North,0,0.0,0.0,36,0.00,CLR,,0.00,WeatherDisplay:10.37,2013-04-19 22:07:00,
2013-04-19 14:12:00,41.2,16.2,30.21,North,0,0.0,0.0,36,0.00,CLR,,0.00,WeatherDisplay:10.37,2013-04-19 22:12:00,
2013-04-19 14:17:00,41.2,16.2,30.18,North,0,0.0,0.0,36,0.00,CLR,,0.00,WeatherDisplay:10.37,2013-04-19 22:17:00,
2013-04-19 14:22:00,41.2,16.2,30.18,North,0,0.0,0.0,36,0.00,CLR,,0.00,WeatherDisplay:10.37,2013-04-19 22:22:00,
2013-04-19 14:27:00,41.7,16.7,30.18,North,0,0.0,0.0,36,0.00,CLR,,0.00,WeatherDisplay:10.37,2013-04-19 22:27:00,
2013-04-19 14:32:00,42.1,17.0,30.18,North,0,0.0,0.0,36,0.00,CLR,,0.00,WeatherDisplay:10.37,2013-04-19 22:32:00,
2013-04-19 14:37:00,42.4,16.7,30.18,North,0,0.0,0.0,35,0.00,CLR,,0.00,WeatherDisplay:10.37,2013-04-19 22:37:00,
2013-04-19 14:42:00,43.2,17.3,30.18,North,0,0.0,0.0,35,0.00,CLR,,0.00,WeatherDisplay:10.37,2013-04-19 22:42:00,
2013-04-19 14:47:00,43.3,17.5,30.18,North,0,0.0,0.0,35,0.00,CLR,,0.00,WeatherDisplay:10.37,2013-04-19 22:47:00,
2013-04-19 14:52:00,43.7,17.8,30.18,North,0,0.0,0.0,35,0.00,CLR,,0.00,WeatherDisplay:10.37,2013-04-19 22:52:00,
2013-04-19 14:57:00,43.9,17.3,30.18,North,0,0.0,0.0,34,0.00,CLR,,0.00,WeatherDisplay:10.37,2013-04-19 22:57:00,
2013-04-19 15:02:00,44.6,18.6,30.18,North,0,0.0,0.0,35,0.00,CLR,,0.00,WeatherDisplay:10.37,2013-04-19 23:02:00,
2013-04-19 15:07:00,44.6,17.9,30.18,North,0,0.0,0.0,34,0.00,CLR,,0.00,WeatherDisplay:10.37,2013-04-19 23:07:00,
2013-04-19 15:12:00,45.0,18.2,30.18,North,0,0.0,0.0,34,0.00,CLR,,0.00,WeatherDisplay:10.37,2013-04-19 23:12:00,
2013-04-19 15:17:00,45.5,18.0,30.18,North,0,0.0,0.0,33,0.00,CLR,,0.00,WeatherDisplay:10.37,2013-04-19 23:17:00,
2013-04-19 15:22:00,45.3,17.9,30.18,North,0,0.0,0.0,33,0.00,CLR,,0.00,WeatherDisplay:10.37,2013-04-19 23:22:00,
2013-04-19 15:27:00,45.1,17.7,30.18,North,0,0.0,0.0,33,0.00,CLR,,0.00,WeatherDisplay:10.37,2013-04-19 23:27:00,
2013-04-19 15:32:00,45.9,17.6,30.18,North,0,0.0,0.0,32,0.00,CLR,,0.00,WeatherDisplay:10.37,2013-04-19 23:32:00,
2013-04-19 15:37:00,45.9,18.3,30.18,North,0,0.0,0.0,33,0.00,CLR,,0.00,WeatherDisplay:10.37,2013-04-19 23:37:00,
2013-04-19 15:42:00,47.3,20.3,30.18,North,0,0.0,0.0,34,0.00,CLR,,0.00,WeatherDisplay:10.37,2013-04-19 23:42:00,
2013-04-19 15:47:00,45.7,18.9,30.18,North,0,0.0,0.0,34,0.00,CLR,,0.00,WeatherDisplay:10.37,2013-04-19 23:47:00,
2013-04-19 15:52:00,44.2,17.6,30.18,North,0,0.0,0.0,34,0.00,CLR,,0.00,WeatherDisplay:10.37,2013-04-19 23:52:00,
2013-04-19 15:57:00,42.8,15.6,30.18,North,0,0.0,0.0,33,0.00,CLR,,0.00,WeatherDisplay:10.37,2013-04-19 23:57:00,
2013-04-19 16:02:00,42.4,16.0,30.18,North,0,0.0,0.0,34,0.00,CLR,,0.00,WeatherDisplay:10.37,2013-04-20 00:02:00,
2013-04-19 16:07:00,42.8,15.6,30.18,North,0,0.0,0.0,33,0.00,CLR,,0.00,WeatherDisplay:10.37,2013-04-20 00:07:00,
2013-04-19 16:12:00,42.8,16.3,30.18,North,0,0.0,0.0,34,0.00,CLR,,0.00,WeatherDisplay:10.37,2013-04-20 00:12:00,
2013-04-19 16:17:00,43.2,16.6,30.18,North,0,0.0,0.0,34,0.00,CLR,,0.00,WeatherDisplay:10.37,2013-04-20 00:17:00,
2013-04-19 16:22:00,43.0,16.5,30.18,North,0,0.0,0.0,34,0.00,CLR,,0.00,WeatherDisplay:10.37,2013-04-20 00:22:00,
2013-04-19 16:27:00,42.6,16.2,30.18,North,0,0.0,0.0,34,0.00,CLR,,0.00,WeatherDisplay:10.37,2013-04-20 00:27:00,
2013-04-19 16:32:00,42.8,16.3,30.18,North,0,0.0,0.0,34,0.00,CLR,,0.00,WeatherDisplay:10.37,2013-04-20 00:32:00,
2013-04-19 16:37:00,42.8,16.3,30.18,North,0,0.0,0.0,34,0.00,CLR,,0.00,WeatherDisplay:10.37,2013-04-20 00:37:00,
2013-04-19 16:42:00,43.3,16.8,30.18,North,0,0.0,0.0,34,0.00,CLR,,0.00,WeatherDisplay:10.37,2013-04-20 00:42:00,
2013-04-19 16:47:00,43.5,17.0,30.18,North,0,0.0,0.0,34,0.00,CLR,,0.00,WeatherDisplay:10.37,2013-04-20 00:47:00,
2013-04-19 16:52:00,43.3,16.8,30.18,North,0,0.0,0.0,34,0.00,CLR,,0.00,WeatherDisplay:10.37,2013-04-20 00:52:00,
2013-04-19 16:57:00,43.3,16.1,30.18,North,0,0.0,0.0,33,0.00,CLR,,0.00,WeatherDisplay:10.37,2013-04-20 00:57:00,
2013-04-19 17:02:00,43.7,16.4,30.18,North,0,0.0,0.0,33,0.00,CLR,,0.00,WeatherDisplay:10.37,2013-04-20 01:02:00,
2013-04-19 17:07:00,44.6,17.2,30.18,North,0,0.0,0.0,33,0.00,CLR,,0.00,WeatherDisplay:10.37,2013-04-20 01:07:00,
2013-04-19 17:12:00,45.1,17.7,30.18,North,0,0.0,0.0,33,0.00,CLR,,0.00,WeatherDisplay:10.37,2013-04-20 01:12:00,
2013-04-19 17:17:00,45.1,17.7,30.18,North,0,0.0,0.0,33,0.00,CLR,,0.00,WeatherDisplay:10.37,2013-04-20 01:17:00,
2013-04-19 17:22:00,45.3,17.1,30.18,North,0,0.0,0.0,32,0.00,CLR,,0.00,WeatherDisplay:10.37,2013-04-20 01:22:00,
2013-04-19 17:27:00,45.9,18.3,30.18,North,0,0.0,0.0,33,0.00,CLR,,0.00,WeatherDisplay:10.37,2013-04-20 01:27:00,
2013-04-19 17:32:00,45.3,18.6,30.18,North,0,0.0,0.0,34,0.00,CLR,,0.00,WeatherDisplay:10.37,2013-04-20 01:32:00,
2013-04-19 17:37:00,45.7,18.9,30.18,North,0,0.0,0.0,34,0.00,CLR,,0.00,WeatherDisplay:10.37,2013-04-20 01:37:00,
2013-04-19 17:42:00,45.5,18.0,30.18,North,0,0.0,0.0,33,0.00,CLR,,0.00,WeatherDisplay:10.37,2013-04-20 01:42:00,
2013-04-19 17:47:00,43.9,16.6,30.18,North,0,0.0,0.0,33,0.00,CLR,,0.00,WeatherDisplay:10.37,2013-04-20 01:47:00,
2013-04-19 17:52:00,43.5,17.0,30.18,North,0,0.0,0.0,34,0.00,CLR,,0.00,WeatherDisplay:10.37,2013-04-20 01:52:00,
2013-04-19 17:57:00,43.7,17.1,30.18,North,0,0.0,0.0,34,0.00,CLR,,0.00,WeatherDisplay:10.37,2013-04-20 01:57:00,
2013-04-19 18:02:00,44.1,16.8,30.18,North,0,0.0,0.0,33,0.00,CLR,,0.00,WeatherDisplay:10.37,2013-04-20 02:02:00,
2013-04-19 18:07:00,44.1,17.4,30.18,North,0,0.0,0.0,34,0.00,CLR,,0.00,WeatherDisplay:10.37,2013-04-20 02:07:00,
2013-04-19 18:12:00,43.5,17.0,30.18,North,0,0.0,0.0,34,0.00,CLR,,0.00,WeatherDisplay:10.37,2013-04-20 02:12:00,
2013-04-19 18:17:00,43.3,16.8,30.18,North,0,0.0,0.0,34,0.00,CLR,,0.00,WeatherDisplay:10.37,2013-04-20 02:17:00,
2013-04-19 18:22:00,43.3,16.1,30.18,North,0,0.0,0.0,33,0.00,CLR,,0.00,WeatherDisplay:10.37,2013-04-20 02:22:00,
2013-04-19 18:27:00,43.3,16.8,30.18,North,0,0.0,0.0,34,0.00,CLR,,0.00,WeatherDisplay:10.37,2013-04-20 02:27:00,
2013-04-19 18:32:00,43.3,16.1,30.18,North,0,0.0,0.0,33,0.00,CLR,,0.00,WeatherDisplay:10.37,2013-04-20 02:32:00,
2013-04-19 18:37:00,43.0,15.8,30.18,North,0,0.0,0.0,33,0.00,CLR,,0.00,WeatherDisplay:10.37,2013-04-20 02:37:00,
2013-04-19 18:42:00,42.8,15.6,30.18,North,0,0.0,0.0,33,0.00,CLR,,0.00,WeatherDisplay:10.37,2013-04-20 02:42:00,
2013-04-19 18:47:00,42.6,16.2,30.18,North,0,0.0,0.0,34,0.00,CLR,,0.00,WeatherDisplay:10.37,2013-04-20 02:47:00,
2013-04-19 18:52:00,42.8,15.6,30.18,North,0,0.0,0.0,33,0.00,CLR,,0.00,WeatherDisplay:10.37,2013-04-20 02:52:00,
2013-04-19 18:57:00,43.0,16.5,30.18,North,0,0.0,0.0,34,0.00,CLR,,0.00,WeatherDisplay:10.37,2013-04-20 02:57:00,
2013-04-19 19:02:00,42.8,15.6,30.18,North,0,0.0,0.0,33,0.00,CLR,,0.00,WeatherDisplay:10.37,2013-04-20 03:02:00,
2013-04-19 19:07:00,42.4,16.0,30.18,North,0,0.0,0.0,34,0.00,CLR,,0.00,WeatherDisplay:10.37,2013-04-20 03:07:00,
2013-04-19 19:12:00,42.3,15.9,30.18,North,0,0.0,0.0,34,0.00,CLR,,0.00,WeatherDisplay:10.37,2013-04-20 03:12:00,
2013-04-19 19:17:00,42.3,15.9,30.18,North,0,0.0,0.0,34,0.00,CLR,,0.00,WeatherDisplay:10.37,2013-04-20 03:17:00,
2013-04-19 19:22:00,42.4,16.7,30.18,North,0,0.0,0.0,35,0.00,CLR,,0.00,WeatherDisplay:10.37,2013-04-20 03:22:00,
2013-04-19 19:27:00,42.3,16.5,30.18,North,0,0.0,0.0,35,0.00,CLR,,0.00,WeatherDisplay:10.37,2013-04-20 03:27:00,
2013-04-19 19:32:00,42.3,15.9,30.18,North,0,0.0,0.0,34,0.00,CLR,,0.00,WeatherDisplay:10.37,2013-04-20 03:32:00,
2013-04-19 19:37:00,41.9,15.5,30.18,North,0,0.0,0.0,34,0.00,CLR,,0.00,WeatherDisplay:10.37,2013-04-20 03:37:00,
2013-04-19 19:42:00,41.9,16.2,30.18,North,0,0.0,0.0,35,0.00,CLR,,0.00,WeatherDisplay:10.37,2013-04-20 03:42:00,
2013-04-19 19:47:00,41.9,16.9,30.18,North,0,0.0,0.0,36,0.00,CLR,,0.00,WeatherDisplay:10.37,2013-04-20 03:47:00,
2013-04-19 19:52:00,41.9,16.9,30.18,North,0,0.0,0.0,36,0.00,CLR,,0.00,WeatherDisplay:10.37,2013-04-20 03:52:00,
2013-04-19 19:57:00,41.7,16.7,30.18,North,0,0.0,0.0,36,0.00,CLR,,0.00,WeatherDisplay:10.37,2013-04-20 03:57:00,
2013-04-19 20:01:00,41.4,16.4,30.18,North,0,0.0,0.0,36,0.00,CLR,,0.00,WeatherDisplay:10.37,2013-04-20 04:01:00,
2013-04-19 20:02:00,41.4,16.4,30.18,North,0,0.0,0.0,36,0.00,CLR,,0.00,WeatherDisplay:10.37,2013-04-20 04:02:00,
2013-04-19 20:03:00,41.2,16.2,30.18,North,0,0.0,0.0,36,0.00,CLR,,0.00,WeatherDisplay:10.37,2013-04-20 04:03:00,
2013-04-19 20:07:00,41.0,16.7,30.18,North,0,0.0,0.0,37,0.00,CLR,,0.00,WeatherDisplay:10.37,2013-04-20 04:07:00,
2013-04-19 20:09:00,40.8,16.5,30.18,North,0,0.0,0.0,37,0.00,CLR,,0.00,WeatherDisplay:10.37,2013-04-20 04:09:00,
2013-04-19 20:14:00,40.5,16.8,30.18,North,0,0.0,0.0,38,0.00,CLR,,0.00,WeatherDisplay:10.37,2013-04-20 04:14:00,
2013-04-19 20:19:00,40.3,17.3,30.18,North,0,0.0,0.0,39,0.00,CLR,,0.00,WeatherDisplay:10.37,2013-04-20 04:19:00,
2013-04-19 20:24:00,40.1,17.1,30.18,North,0,0.0,0.0,39,0.00,CLR,,0.00,WeatherDisplay:10.37,2013-04-20 04:24:00,
2013-04-19 20:29:00,39.9,16.9,30.18,North,0,0.0,0.0,39,0.00,CLR,,0.00,WeatherDisplay:10.37,2013-04-20 04:29:00,
2013-04-19 20:34:00,39.7,17.4,30.18,North,0,0.0,0.0,40,0.00,CLR,,0.00,WeatherDisplay:10.37,2013-04-20 04:34:00,
2013-04-19 20:39:00,39.6,17.2,30.18,North,0,0.0,0.0,40,0.00,CLR,,0.00,WeatherDisplay:10.37,2013-04-20 04:39:00,
2013-04-19 20:44:00,39.2,16.9,30.18,North,0,0.0,0.0,40,0.00,CLR,,0.00,WeatherDisplay:10.37,2013-04-20 04:44:00,
2013-04-19 20:49:00,38.7,17.0,30.18,North,0,0.0,0.0,41,0.00,CLR,,0.00,WeatherDisplay:10.37,2013-04-20 04:49:00,
2013-04-19 20:54:00,38.1,16.5,30.18,North,0,0.0,0.0,41,0.00,CLR,,0.00,WeatherDisplay:10.37,2013-04-20 04:54:00,
2013-04-19 20:59:00,37.8,16.7,30.18,North,0,0.0,0.0,42,0.00,CLR,,0.00,WeatherDisplay:10.37,2013-04-20 04:59:00,
2013-04-19 21:04:00,37.4,16.9,30.18,North,0,0.0,0.0,43,0.00,CLR,,0.00,WeatherDisplay:10.37,2013-04-20 05:04:00,
2013-04-19 21:09:00,37.0,17.6,30.18,North,0,0.0,0.0,45,0.00,CLR,,0.00,WeatherDisplay:10.37,2013-04-20 05:09:00,
2013-04-19 21:14:00,36.7,17.8,30.18,North,0,0.0,0.0,46,0.00,CLR,,0.00,WeatherDisplay:10.37,2013-04-20 05:14:00,
2013-04-19 21:19:00,36.7,18.8,30.18,North,0,0.0,0.0,48,0.00,CLR,,0.00,WeatherDisplay:10.37,2013-04-20 05:19:00,
2013-04-19 21:24:00,36.0,18.1,30.18,North,0,0.0,0.0,48,0.00,CLR,,0.00,WeatherDisplay:10.37,2013-04-20 05:24:00,
2013-04-19 21:29:00,35.6,18.3,30.18,North,0,0.0,0.0,49,0.00,CLR,,0.00,WeatherDisplay:10.37,2013-04-20 05:29:00,
2013-04-19 21:34:00,35.2,18.0,30.18,North,0,0.0,0.0,49,0.00,CLR,,0.00,WeatherDisplay:10.37,2013-04-20 05:34:00,
2013-04-19 21:39:00,34.9,18.1,30.18,North,0,0.0,0.0,50,0.00,CLR,,0.00,WeatherDisplay:10.37,2013-04-20 05:39:00,
2013-04-19 21:44:00,34.5,17.8,30.21,North,0,0.0,0.0,50,0.00,CLR,,0.00,WeatherDisplay:10.37,2013-04-20 05:44:00,
2013-04-19 21:49:00,34.3,18.1,30.21,North,0,0.0,0.0,51,0.00,CLR,,0.00,WeatherDisplay:10.37,2013-04-20 05:49:00,
2013-04-19 21:54:00,34.0,17.7,30.21,North,0,0.0,0.0,51,0.00,CLR,,0.00,WeatherDisplay:10.37,2013-04-20 05:54:00,
2013-04-19 21:59:00,33.8,17.6,30.21,North,0,0.0,0.0,51,0.00,CLR,,0.00,WeatherDisplay:10.37,2013-04-20 05:59:00,
2013-04-19 22:04:00,33.6,17.8,30.21,North,0,0.0,0.0,52,0.00,CLR,,0.00,WeatherDisplay:10.37,2013-04-20 06:04:00,
2013-04-19 22:09:00,33.4,18.6,30.21,North,0,0.0,0.0,54,0.00,CLR,,0.00,WeatherDisplay:10.37,2013-04-20 06:09:00,
2013-04-19 22:14:00,33.3,18.4,30.21,North,0,0.0,0.0,54,0.00,CLR,,0.00,WeatherDisplay:10.37,2013-04-20 06:14:00,
2013-04-19 22:19:00,33.3,18.4,30.21,North,0,0.0,0.0,54,0.00,CLR,,0.00,WeatherDisplay:10.37,2013-04-20 06:19:00,
2013-04-19 22:24:00,32.7,17.5,30.21,North,0,0.0,0.0,53,0.00,CLR,,0.00,WeatherDisplay:10.37,2013-04-20 06:24:00,
2013-04-19 22:29:00,32.5,17.7,30.21,North,0,0.0,0.0,54,0.00,CLR,,0.00,WeatherDisplay:10.37,2013-04-20 06:29:00,
2013-04-19 22:34:00,32.4,18.0,30.21,North,0,0.0,0.0,55,0.00,CLR,,0.00,WeatherDisplay:10.37,2013-04-20 06:34:00,
2013-04-19 22:39:00,31.8,17.5,30.21,North,0,0.0,0.0,55,0.00,CLR,,0.00,WeatherDisplay:10.37,2013-04-20 06:39:00,
2013-04-19 22:44:00,31.3,17.0,30.21,North,0,0.0,0.0,55,0.00,CLR,,0.00,WeatherDisplay:10.37,2013-04-20 06:44:00,
2013-04-19 22:49:00,31.1,16.8,30.21,North,0,0.0,0.0,55,0.00,CLR,,0.00,WeatherDisplay:10.37,2013-04-20 06:49:00,
2013-04-19 22:54:00,31.3,18.6,30.21,North,0,0.0,0.0,59,0.00,CLR,,0.00,WeatherDisplay:10.37,2013-04-20 06:54:00,
2013-04-19 22:59:00,31.1,18.0,30.21,North,0,0.0,0.0,58,0.00,CLR,,0.00,WeatherDisplay:10.37,2013-04-20 06:59:00,
2013-04-19 23:04:00,30.7,17.3,30.21,North,0,0.0,0.0,57,0.00,CLR,,0.00,WeatherDisplay:10.37,2013-04-20 07:04:00,
2013-04-19 23:09:00,30.2,16.8,30.21,North,0,0.0,0.0,57,0.00,CLR,,0.00,WeatherDisplay:10.37,2013-04-20 07:09:00,
2013-04-19 23:14:00,29.8,16.4,30.24,North,0,0.0,0.0,57,0.00,CLR,,0.00,WeatherDisplay:10.37,2013-04-20 07:14:00,
2013-04-19 23:19:00,29.8,16.8,30.24,North,0,0.0,0.0,58,0.00,CLR,,0.00,WeatherDisplay:10.37,2013-04-20 07:19:00,
2013-04-19 23:24:00,29.3,16.7,30.24,North,0,0.0,0.0,59,0.00,CLR,,0.00,WeatherDisplay:10.37,2013-04-20 07:24:00,
2013-04-19 23:29:00,28.9,16.0,30.21,North,0,0.0,0.0,58,0.00,CLR,,0.00,WeatherDisplay:10.37,2013-04-20 07:29:00,
2013-04-19 23:34:00,28.8,15.8,30.21,North,0,0.0,0.0,58,0.00,CLR,,0.00,WeatherDisplay:10.37,2013-04-20 07:34:00,
2013-04-19 23:39:00,28.6,16.1,30.21,North,0,0.0,0.0,59,0.00,CLR,,0.00,WeatherDisplay:10.37,2013-04-20 07:39:00,
2013-04-19 23:44:00,28.6,16.4,30.21,North,0,0.0,0.0,60,0.00,CLR,,0.00,WeatherDisplay:10.37,2013-04-20 07:44:00,
2013-04-19 23:49:00,28.2,16.1,30.21,North,0,0.0,0.0,60,0.00,CLR,,0.00,WeatherDisplay:10.37,2013-04-20 07:49:00,
2013-04-19 23:54:00,28.0,16.7,30.21,North,0,0.0,0.0,62,0.00,CLR,,0.00,WeatherDisplay:10.37,2013-04-20 07:54:00,
2013-04-19 23:59:00,28.2,16.9,30.24,North,0,0.0,0.0,62,0.00,CLR,,0.00,WeatherDisplay:10.37,2013-04-20 07:59:00,